createdAt,value
2018-06-19T00:03:16.755Z,20.40
2018-06-19T00:08:19.874Z,18.60
2018-06-19T00:13:23.074Z,20.10
2018-06-19T00:18:28.788Z,21.10
2018-06-19T00:23:32.320Z,18.43
2018-06-19T00:28:38.509Z,20.37
2018-06-19T00:33:41.689Z,20.20
2018-06-19T00:38:45.082Z,22.17
2018-06-19T00:43:48.009Z,22.67
2018-06-19T00:48:51.349Z,17.17
2018-06-19T00:53:54.777Z,22.20
2018-06-19T00:58:59.443Z,22.70
2018-06-19T01:04:02.547Z,25.50
2018-06-19T01:09:07.399Z,24.90
2018-06-19T01:14:10.569Z,22.33
2018-06-19T01:19:13.718Z,23.70
2018-06-19T01:24:16.709Z,23.27
2018-06-19T01:29:19.896Z,21.47
2018-06-19T01:34:23.419Z,21.10
2018-06-19T01:39:26.363Z,22.07
2018-06-19T01:44:29.392Z,20.90
2018-06-19T01:49:32.513Z,20.67
2018-06-19T01:54:35.646Z,22.57
2018-06-19T01:59:38.740Z,20.67
2018-06-19T02:04:41.805Z,22.30
2018-06-19T02:09:44.780Z,22.07
2018-06-19T02:14:47.892Z,20.43
2018-06-19T02:19:51.424Z,23.70
2018-06-19T02:24:55.205Z,18.67
2018-06-19T02:29:58.827Z,17.93
2018-06-19T02:35:01.797Z,19.33
2018-06-19T02:40:04.828Z,16.70
2018-06-19T02:45:08.091Z,20.83
2018-06-19T02:50:11.452Z,20.80
2018-06-19T02:55:14.610Z,22.80
2018-06-19T03:00:18.108Z,20.83
2018-06-19T03:05:21.354Z,21.67
2018-06-19T03:10:24.365Z,20.80
2018-06-19T03:15:27.601Z,21.43
2018-06-19T03:20:30.827Z,21.17
2018-06-19T03:25:34.442Z,18.80
2018-06-19T03:30:37.557Z,21.20
2018-06-19T03:35:40.912Z,20.40
2018-06-19T03:40:44.213Z,22.10
2018-06-19T03:45:47.225Z,18.73
2018-06-19T03:50:51.189Z,20.90
2018-06-19T03:55:54.582Z,22.47
2018-06-19T04:00:57.977Z,19.20
2018-06-19T04:06:00.868Z,20.77
2018-06-19T04:11:04.080Z,20.63
2018-06-19T04:16:07.254Z,19.90
2018-06-19T04:21:10.572Z,19.33
2018-06-19T04:26:13.713Z,19.47
2018-06-19T04:31:16.672Z,18.07
2018-06-19T04:36:19.937Z,17.40
2018-06-19T04:41:22.922Z,16.53
2018-06-19T04:46:25.855Z,15.30
2018-06-19T04:51:28.932Z,14.97
2018-06-19T04:56:32.065Z,15.07
2018-06-19T05:01:34.995Z,15.37
2018-06-19T05:06:38.172Z,14.17
2018-06-19T05:11:42.341Z,13.70
2018-06-19T05:16:45.377Z,11.10
2018-06-19T05:21:48.369Z,11.00
2018-06-19T05:26:51.597Z,13.07
2018-06-19T05:31:54.473Z,11.07
2018-06-19T05:36:57.685Z,13.20
2018-06-19T05:42:00.621Z,12.50
2018-06-19T05:47:03.559Z,11.80
2018-06-19T05:52:06.692Z,11.90
2018-06-19T05:57:09.546Z,10.13
2018-06-19T06:02:12.752Z,11.57
2018-06-19T06:07:18.319Z,12.57
2018-06-19T06:12:21.228Z,11.13
2018-06-19T06:17:24.638Z,11.00
2018-06-19T06:22:27.557Z,12.50
2018-06-19T06:27:30.470Z,10.83
2018-06-19T06:32:34.472Z,11.93
2018-06-19T06:37:37.409Z,10.50
2018-06-19T06:42:40.329Z,10.03
2018-06-19T06:47:43.317Z,11.83
2018-06-19T06:52:46.233Z,10.90
2018-06-19T06:57:49.202Z,11.13
2018-06-19T07:02:52.489Z,11.67
2018-06-19T07:07:56.097Z,9.43
2018-06-19T07:12:59.004Z,8.63
2018-06-19T07:18:01.918Z,8.20
2018-06-19T07:23:04.842Z,8.10
2018-06-19T07:28:07.752Z,10.00
2018-06-19T07:33:23.320Z,6.67
2018-06-19T07:38:26.352Z,8.07
2018-06-19T07:43:31.324Z,5.73
2018-06-19T07:48:34.613Z,6.50
2018-06-19T07:53:38.526Z,5.87
2018-06-19T07:58:41.774Z,7.13
2018-06-19T08:03:44.870Z,7.10
2018-06-19T08:08:47.774Z,5.77
2018-06-19T08:13:50.652Z,5.23
2018-06-19T08:18:53.937Z,5.20
2018-06-19T08:23:57.357Z,4.37
2018-06-19T08:29:00.757Z,5.77
2018-06-19T08:34:03.780Z,6.60
2018-06-19T08:39:08.902Z,5.00
2018-06-19T08:44:12.134Z,5.40
2018-06-19T08:49:15.037Z,4.53
2018-06-19T08:54:17.980Z,3.83
2018-06-19T08:59:20.871Z,4.60
2018-06-19T09:04:24.684Z,3.40
2018-06-19T09:09:27.803Z,3.43
2018-06-19T09:14:31.270Z,3.00
2018-06-19T09:19:34.176Z,3.27
2018-06-19T09:24:37.822Z,2.80
2018-06-19T09:29:40.978Z,2.93
2018-06-19T09:34:43.921Z,2.67
2018-06-19T09:39:47.436Z,3.10
2018-06-19T09:44:50.582Z,3.10
2018-06-19T09:49:53.461Z,2.47
2018-06-19T09:54:56.479Z,2.27
2018-06-19T09:59:59.464Z,2.07
2018-06-19T10:05:02.523Z,2.90
2018-06-19T10:10:05.755Z,2.90
2018-06-19T10:15:08.976Z,2.67
2018-06-19T10:20:11.938Z,3.00
2018-06-19T10:25:14.953Z,3.37
2018-06-19T10:30:17.865Z,2.80
2018-06-19T10:35:22.029Z,2.67
2018-06-19T10:40:25.021Z,2.40
2018-06-19T10:45:28.191Z,2.63
2018-06-19T10:50:31.038Z,2.40
2018-06-19T10:55:33.962Z,2.80
2018-06-19T11:00:37.919Z,2.60
2018-06-19T11:05:41.678Z,2.73
2018-06-19T11:10:44.908Z,2.87
2018-06-19T11:15:47.863Z,3.30
2018-06-19T11:20:51.261Z,3.20
2018-06-19T11:25:54.275Z,4.20
2018-06-19T11:30:57.422Z,2.90
2018-06-19T11:36:00.274Z,4.07
2018-06-19T11:41:03.392Z,2.83
2018-06-19T11:46:06.356Z,3.37
2018-06-19T11:51:09.625Z,3.77
2018-06-19T11:56:12.678Z,4.37
2018-06-19T12:01:15.681Z,3.43
2018-06-19T12:06:19.376Z,4.73
2018-06-19T12:11:22.546Z,3.20
2018-06-19T12:16:25.405Z,4.67
2018-06-19T12:21:28.552Z,4.53
2018-06-19T12:26:31.824Z,3.83
2018-06-19T12:31:34.699Z,4.03
2018-06-19T12:36:37.595Z,4.80
2018-06-19T12:41:46.466Z,4.20
2018-06-19T12:46:49.346Z,4.40
2018-06-19T12:52:03.638Z,4.70
2018-06-19T12:57:07.076Z,4.40
2018-06-19T13:02:10.931Z,4.43
2018-06-19T13:07:13.859Z,3.93
2018-06-19T13:12:28.337Z,3.87
2018-06-19T13:17:42.241Z,3.33
2018-06-19T13:22:45.100Z,3.80
2018-06-19T13:27:48.308Z,4.10
2018-06-19T13:32:51.584Z,3.60
2018-06-19T13:37:54.499Z,3.63
2018-06-19T13:43:08.709Z,3.97
2018-06-19T13:48:11.641Z,3.30
2018-06-19T13:53:14.943Z,4.40
2018-06-19T13:58:19.622Z,4.33
2018-06-19T14:03:22.663Z,4.13
2018-06-19T14:08:51.078Z,3.70
2018-06-19T14:13:54.259Z,5.13
2018-06-19T14:18:57.123Z,4.20
2018-06-19T14:24:00.016Z,4.30
2018-06-19T14:29:03.168Z,3.83
2018-06-19T14:34:06.084Z,3.67
2018-06-19T14:39:09.530Z,4.60
2018-06-19T14:44:12.404Z,4.63
2018-06-19T14:49:15.285Z,4.40
2018-06-19T14:54:18.521Z,4.30
2018-06-19T14:59:21.724Z,4.80
2018-06-19T15:04:27.125Z,5.40
2018-06-19T15:09:34.026Z,4.50
2018-06-19T15:14:37.542Z,4.17
2018-06-19T15:19:40.605Z,4.00
2018-06-19T15:24:43.639Z,5.60
2018-06-19T15:29:46.845Z,5.10
2018-06-19T15:34:49.694Z,5.83
2018-06-19T15:39:52.581Z,4.30
2018-06-19T15:44:55.868Z,4.10
2018-06-19T15:49:58.997Z,4.33
2018-06-19T15:55:02.239Z,4.70
2018-06-19T16:00:05.821Z,4.43
2018-06-19T16:05:08.747Z,4.77
2018-06-19T16:10:11.871Z,4.60
2018-06-19T16:15:14.958Z,3.90
2018-06-19T16:20:17.972Z,3.50
2018-06-19T16:25:20.898Z,4.87
2018-06-19T16:30:23.798Z,3.97
2018-06-19T16:35:26.712Z,4.43
2018-06-19T16:40:29.588Z,4.30
2018-06-19T16:45:32.606Z,3.97
2018-06-19T16:50:35.653Z,4.00
2018-06-19T16:55:39.053Z,3.27
2018-06-19T17:00:41.999Z,3.97
2018-06-19T17:05:45.354Z,3.80
2018-06-19T17:10:48.380Z,4.70
2018-06-19T17:15:51.496Z,4.07
2018-06-19T17:20:54.772Z,4.83
2018-06-19T17:25:57.857Z,4.40
2018-06-19T17:31:01.089Z,5.77
2018-06-19T17:36:04.708Z,5.37
2018-06-19T17:41:07.916Z,5.10
2018-06-19T17:46:11.471Z,5.77
2018-06-19T17:51:18.581Z,4.53
2018-06-19T17:56:21.867Z,5.60
2018-06-19T18:01:25.773Z,4.53
2018-06-19T18:06:29.577Z,5.03
2018-06-19T18:11:35.130Z,4.73
2018-06-19T18:16:38.803Z,5.10
2018-06-19T18:21:42.126Z,4.90
2018-06-19T18:26:45.430Z,4.73
2018-06-19T18:31:49.272Z,5.53
2018-06-19T18:36:52.550Z,5.90
2018-06-19T18:41:55.859Z,6.17
2018-06-19T18:46:59.727Z,6.20
2018-06-19T18:52:03.042Z,11.00
2018-06-19T18:57:06.409Z,7.40
2018-06-19T19:02:10.300Z,5.67
2018-06-19T19:07:14.023Z,5.43
2018-06-19T19:12:17.507Z,6.10
2018-06-19T19:17:26.672Z,5.10
2018-06-19T19:22:30.236Z,6.37
2018-06-19T19:27:39.607Z,5.77
2018-06-19T19:32:43.078Z,6.90
2018-06-19T19:37:51.959Z,6.53
2018-06-19T19:42:56.168Z,6.90
2018-06-19T19:48:05.365Z,5.33
2018-06-19T19:53:08.762Z,6.07
2018-06-19T19:58:17.521Z,4.33
2018-06-19T20:03:20.864Z,5.97
2018-06-19T20:08:25.701Z,6.93
2018-06-19T20:13:29.852Z,5.30
2018-06-19T20:18:33.342Z,4.90
2018-06-19T20:23:38.886Z,4.87
2018-06-19T20:28:43.801Z,4.83
2018-06-19T20:33:46.923Z,5.87
2018-06-19T20:38:50.429Z,4.63
2018-06-19T20:43:53.609Z,6.00
2018-06-19T20:48:56.636Z,5.97
2018-06-19T20:53:59.544Z,4.37
2018-06-19T20:59:02.522Z,3.97
2018-06-19T21:04:05.820Z,4.83
2018-06-19T21:09:08.728Z,5.17
2018-06-19T21:14:11.969Z,5.10
2018-06-19T21:19:15.057Z,6.70
2018-06-19T21:24:17.940Z,5.30
2018-06-19T21:29:20.845Z,5.30
2018-06-19T21:34:24.281Z,7.03
2018-06-19T21:39:27.094Z,6.03
2018-06-19T21:44:30.147Z,6.70
2018-06-19T21:49:33.450Z,4.43
2018-06-19T21:54:36.425Z,6.73
2018-06-19T21:59:40.629Z,6.07
2018-06-19T22:04:45.231Z,5.20
2018-06-19T22:09:48.630Z,6.10
2018-06-19T22:14:52.331Z,5.70
2018-06-19T22:19:55.731Z,7.20
2018-06-19T22:24:58.739Z,6.10
2018-06-19T22:30:01.801Z,6.23
2018-06-19T22:35:05.209Z,5.97
2018-06-19T22:40:08.449Z,5.83
2018-06-19T22:45:11.761Z,6.67
2018-06-19T22:50:15.175Z,6.30
2018-06-19T22:55:18.324Z,5.40
2018-06-19T23:00:28.461Z,5.78
2018-06-19T23:05:32.745Z,5.40
2018-06-19T23:10:37.335Z,9.63
2018-06-19T23:15:41.273Z,6.20
2018-06-19T23:20:44.865Z,5.77
2018-06-19T23:25:48.339Z,6.83
2018-06-19T23:30:51.824Z,5.77
2018-06-19T23:35:56.049Z,8.00
2018-06-19T23:40:59.313Z,6.23
2018-06-19T23:46:02.237Z,6.30
2018-06-19T23:51:05.672Z,6.63
2018-06-19T23:56:08.521Z,6.57
